createdAt,value
2023-03-01T00:01:17.225Z,100682.63
2023-03-01T00:03:44.372Z,100680.84
2023-03-01T00:06:11.506Z,100685.31
2023-03-01T00:08:38.553Z,100686.16
2023-03-01T00:11:09.210Z,100680.72
2023-03-01T00:13:37.085Z,100685.91
2023-03-01T00:16:08.183Z,100681.34
2023-03-01T00:18:35.538Z,100671.88
2023-03-01T00:21:03.228Z,100680.47
2023-03-01T00:23:30.036Z,100678.38
2023-03-01T00:25:56.915Z,100685.81
2023-03-01T00:28:23.864Z,100679.81
2023-03-01T00:30:50.914Z,100680.19
2023-03-01T00:33:20.084Z,100683.00
2023-03-01T00:35:46.991Z,100675.97
2023-03-01T00:38:13.865Z,100674.41
2023-03-01T00:40:40.641Z,100672.59
2023-03-01T00:43:07.493Z,100681.75
2023-03-01T00:45:34.385Z,100681.03
2023-03-01T00:48:01.600Z,100685.97
2023-03-01T00:50:30.128Z,100686.47
2023-03-01T00:52:57.727Z,100689.69
2023-03-01T00:55:25.715Z,100691.28
2023-03-01T00:57:52.563Z,100680.66
2023-03-01T01:00:20.752Z,100675.09
2023-03-01T01:02:49.663Z,100681.97
2023-03-01T01:05:16.676Z,100682.09
2023-03-01T01:07:45.056Z,100674.94
2023-03-01T01:10:12.187Z,100684.88
2023-03-01T01:12:38.969Z,100682.75
2023-03-01T01:15:07.609Z,100680.78
2023-03-01T01:17:34.552Z,100676.69
2023-03-01T01:20:02.422Z,100675.72
2023-03-01T01:22:30.034Z,100674.50
2023-03-01T01:24:58.313Z,100673.66
2023-03-01T01:27:25.623Z,100674.94
2023-03-01T01:29:54.397Z,100666.97
2023-03-01T01:32:21.221Z,100662.50
2023-03-01T01:34:48.391Z,100661.91
2023-03-01T01:37:15.196Z,100649.63
2023-03-01T01:39:42.274Z,100654.69
2023-03-01T01:42:16.688Z,100653.88
2023-03-01T01:44:47.276Z,100641.91
2023-03-01T01:47:18.907Z,100643.63
2023-03-01T01:49:49.946Z,100640.00
2023-03-01T01:52:22.818Z,100632.13
2023-03-01T01:54:58.632Z,100630.59
2023-03-01T01:57:34.611Z,100637.56
2023-03-01T02:00:07.419Z,100625.97
2023-03-01T02:02:43.966Z,100624.91
2023-03-01T02:05:21.643Z,100621.13
2023-03-01T02:07:49.814Z,100620.03
2023-03-01T02:10:21.817Z,100619.19
2023-03-01T02:12:50.764Z,100607.59
2023-03-01T02:15:17.800Z,100608.44
2023-03-01T02:17:44.731Z,100599.72
2023-03-01T02:20:30.123Z,100604.53
2023-03-01T02:22:59.245Z,100600.38
2023-03-01T02:25:41.326Z,100603.75
2023-03-01T02:28:21.313Z,100596.03
2023-03-01T02:30:51.537Z,100588.19
2023-03-01T02:33:18.574Z,100581.19
2023-03-01T02:35:45.605Z,100584.25
2023-03-01T02:38:12.568Z,100577.81
2023-03-01T02:40:41.687Z,100583.03
2023-03-01T02:43:35.380Z,100569.38
2023-03-01T02:46:09.153Z,100562.97
2023-03-01T02:48:45.637Z,100570.31
2023-03-01T02:51:32.898Z,100568.88
2023-03-01T02:54:19.482Z,100566.94
2023-03-01T02:56:46.908Z,100562.19
2023-03-01T02:59:18.841Z,100559.53
2023-03-01T03:01:47.375Z,100555.72
2023-03-01T03:04:17.929Z,100558.38
2023-03-01T03:06:50.245Z,100564.66
2023-03-01T03:09:18.692Z,100561.28
2023-03-01T03:11:46.862Z,100559.63
2023-03-01T03:14:17.459Z,100556.72
2023-03-01T03:16:49.786Z,100562.03
2023-03-01T03:19:17.369Z,100555.06
2023-03-01T03:21:44.413Z,100554.19
2023-03-01T03:24:11.271Z,100552.41
2023-03-01T03:26:38.149Z,100547.84
2023-03-01T03:29:05.104Z,100555.44
2023-03-01T03:31:33.473Z,100550.59
2023-03-01T03:34:00.305Z,100549.63
2023-03-01T03:36:27.453Z,100543.00
2023-03-01T03:38:54.312Z,100542.03
2023-03-01T03:41:21.344Z,100546.47
2023-03-01T03:43:48.302Z,100536.38
2023-03-01T03:46:15.581Z,100541.09
2023-03-01T03:48:46.030Z,100531.13
2023-03-01T03:51:15.493Z,100534.06
2023-03-01T03:53:43.272Z,100531.44
2023-03-01T03:56:10.569Z,100523.38
2023-03-01T03:58:38.287Z,100520.72
2023-03-01T04:01:05.990Z,100521.16
2023-03-01T04:03:35.769Z,100521.78
2023-03-01T04:06:04.953Z,100520.72
2023-03-01T04:08:32.616Z,100513.91
2023-03-01T04:11:03.055Z,100516.69
2023-03-01T04:13:30.059Z,100515.84
2023-03-01T04:15:56.822Z,100515.66
2023-03-01T04:18:24.937Z,100516.47
2023-03-01T04:20:54.017Z,100516.41
2023-03-01T04:23:22.608Z,100521.84
2023-03-01T04:25:52.758Z,100516.91
2023-03-01T04:28:19.876Z,100525.59
2023-03-01T04:30:47.293Z,100525.09
2023-03-01T04:33:14.304Z,100525.09
2023-03-01T04:35:41.313Z,100518.59
2023-03-01T04:38:09.300Z,100520.28
2023-03-01T04:40:38.416Z,100518.38
2023-03-01T04:43:05.715Z,100517.91
2023-03-01T04:45:34.372Z,100523.69
2023-03-01T04:48:02.168Z,100518.63
2023-03-01T04:50:29.322Z,100521.78
2023-03-01T04:52:57.008Z,100534.91
2023-03-01T04:55:23.888Z,100533.72
2023-03-01T04:57:52.318Z,100533.13
2023-03-01T05:00:20.192Z,100542.63
2023-03-01T05:02:49.549Z,100539.50
2023-03-01T05:05:16.998Z,100536.50
2023-03-01T05:07:43.778Z,100537.44
2023-03-01T05:10:11.430Z,100533.59
2023-03-01T05:12:38.207Z,100538.19
2023-03-01T05:15:08.517Z,100531.56
2023-03-01T05:17:35.405Z,100533.72
2023-03-01T05:20:02.718Z,100522.00
2023-03-01T05:22:29.541Z,100520.09
2023-03-01T05:24:56.358Z,100527.06
2023-03-01T05:27:23.149Z,100532.63
2023-03-01T05:29:49.928Z,100531.03
2023-03-01T05:32:18.710Z,100531.97
2023-03-01T05:34:45.713Z,100528.13
2023-03-01T05:37:13.072Z,100523.41
2023-03-01T05:39:40.406Z,100524.38
2023-03-01T05:42:07.245Z,100514.75
2023-03-01T05:44:34.117Z,100512.34
2023-03-01T05:47:01.066Z,100523.91
2023-03-01T05:49:29.190Z,100518.25
2023-03-01T05:51:57.432Z,100526.09
2023-03-01T05:54:24.438Z,100525.16
2023-03-01T05:56:51.233Z,100524.31
2023-03-01T05:59:18.224Z,100521.03
2023-03-01T06:01:45.072Z,100525.16
2023-03-01T06:04:11.948Z,100523.69
2023-03-01T06:06:40.277Z,100524.66
2023-03-01T06:09:08.455Z,100528.78
2023-03-01T06:11:35.816Z,100526.13
2023-03-01T06:14:03.819Z,100522.50
2023-03-01T06:16:31.055Z,100529.00
2023-03-01T06:18:58.156Z,100527.44
2023-03-01T06:21:25.505Z,100534.56
2023-03-01T06:23:53.810Z,100528.03
2023-03-01T06:26:20.697Z,100527.31
2023-03-01T06:28:47.606Z,100523.56
2023-03-01T06:31:14.518Z,100519.91
2023-03-01T06:33:41.828Z,100516.84
2023-03-01T06:36:09.953Z,100520.34
2023-03-01T06:38:37.490Z,100516.97
2023-03-01T06:41:05.760Z,100510.00
2023-03-01T06:43:32.588Z,100511.09
2023-03-01T06:45:59.409Z,100518.81
2023-03-01T06:48:26.409Z,100511.28
2023-03-01T06:50:53.294Z,100509.72
2023-03-01T06:53:20.467Z,100508.59
2023-03-01T06:55:47.313Z,100505.91
2023-03-01T06:58:15.489Z,100505.50
2023-03-01T07:00:42.884Z,100501.50
2023-03-01T07:03:10.084Z,100497.22
2023-03-01T07:05:37.057Z,100496.03
2023-03-01T07:08:04.124Z,100483.41
2023-03-01T07:10:32.391Z,100488.47
2023-03-01T07:12:59.773Z,100486.69
2023-03-01T07:15:29.018Z,100490.19
2023-03-01T07:17:57.454Z,100488.22
2023-03-01T07:20:24.358Z,100489.28
2023-03-01T07:22:51.195Z,100488.88
2023-03-01T07:25:18.368Z,100483.22
2023-03-01T07:27:49.952Z,100475.84
2023-03-01T07:30:18.513Z,100471.75
2023-03-01T07:32:47.304Z,100473.50
2023-03-01T07:35:14.325Z,100471.47
2023-03-01T07:37:41.253Z,100464.78
2023-03-01T07:40:10.278Z,100473.41
2023-03-01T07:42:37.936Z,100472.19
2023-03-01T07:45:08.141Z,100476.78
2023-03-01T07:47:34.917Z,100481.09
2023-03-01T07:50:04.152Z,100468.00
2023-03-01T07:52:32.136Z,100472.88
2023-03-01T07:55:00.801Z,100468.97
2023-03-01T07:57:27.569Z,100459.78
2023-03-01T07:59:54.415Z,100462.34
2023-03-01T08:02:21.259Z,100454.72
2023-03-01T08:04:48.111Z,100452.97
2023-03-01T08:07:16.294Z,100455.28
2023-03-01T08:09:43.958Z,100447.81
2023-03-01T08:12:10.876Z,100447.78
2023-03-01T08:14:37.718Z,100439.50
2023-03-01T08:17:06.216Z,100447.84
2023-03-01T08:19:33.195Z,100443.94
2023-03-01T08:22:00.148Z,100439.47
2023-03-01T08:24:29.644Z,100453.31
2023-03-01T08:26:56.966Z,100446.06
2023-03-01T08:29:24.713Z,100440.31
2023-03-01T08:31:51.956Z,100451.84
2023-03-01T08:34:19.502Z,100441.94
2023-03-01T08:36:48.064Z,100434.50
2023-03-01T08:39:17.975Z,100447.09
2023-03-01T08:41:48.222Z,100449.06
2023-03-01T08:44:17.037Z,100435.94
2023-03-01T08:46:46.413Z,100431.84
2023-03-01T08:49:16.774Z,100437.56
2023-03-01T08:51:45.776Z,100446.72
2023-03-01T08:54:15.565Z,100435.47
2023-03-01T08:56:43.641Z,100434.31
2023-03-01T08:59:14.867Z,100432.56
2023-03-01T09:01:42.540Z,100432.63
2023-03-01T09:06:36.405Z,100437.97
2023-03-01T09:09:05.546Z,100441.19
2023-03-01T09:11:32.902Z,100434.28
2023-03-01T09:14:01.142Z,100432.97
2023-03-01T09:16:30.186Z,100421.47
2023-03-01T09:18:59.323Z,100420.25
2023-03-01T09:21:39.784Z,100434.50
2023-03-01T09:24:14.901Z,100421.97
2023-03-01T09:26:43.295Z,100415.66
2023-03-01T09:29:10.162Z,100405.72
2023-03-01T09:31:40.315Z,100403.66
2023-03-01T09:34:08.893Z,100409.19
2023-03-01T09:36:38.636Z,100395.31
2023-03-01T09:39:07.121Z,100388.91
2023-03-01T09:41:56.155Z,100381.25
2023-03-01T09:44:37.302Z,100389.97
2023-03-01T09:47:17.502Z,100388.50
2023-03-01T09:49:56.027Z,100385.56
2023-03-01T09:52:34.574Z,100373.38
2023-03-01T09:55:11.385Z,100378.03
2023-03-01T09:57:51.360Z,100369.00
2023-03-01T10:00:34.286Z,100367.97
2023-03-01T10:03:17.376Z,100362.38
2023-03-01T10:06:00.743Z,100353.44
2023-03-01T10:08:43.611Z,100353.66
2023-03-01T10:11:49.746Z,100345.66
2023-03-01T10:14:34.628Z,100343.03
2023-03-01T10:17:10.524Z,100336.47
2023-03-01T10:19:42.978Z,100343.28
2023-03-01T10:22:18.605Z,100329.31
2023-03-01T10:24:45.784Z,100335.13
2023-03-01T10:27:22.692Z,100317.06
2023-03-01T10:30:00.259Z,100324.31
2023-03-01T10:32:27.729Z,100316.19
2023-03-01T10:41:14.705Z,100303.81
2023-03-01T10:43:48.377Z,100295.47
2023-03-01T10:46:28.792Z,100291.09
2023-03-01T10:49:16.372Z,100292.84
2023-03-01T10:51:48.215Z,100292.75
2023-03-01T10:54:22.979Z,100284.19
2023-03-01T10:56:54.174Z,100284.16
2023-03-01T10:59:28.694Z,100279.41
2023-03-01T11:02:26.055Z,100272.16
2023-03-01T11:05:02.283Z,100267.06
2023-03-01T11:07:31.784Z,100258.44
2023-03-01T11:09:58.598Z,100255.13
2023-03-01T11:12:26.561Z,100259.25
2023-03-01T11:14:56.414Z,100250.06
2023-03-01T11:17:30.002Z,100258.66
2023-03-01T11:20:05.813Z,100248.59
2023-03-01T11:22:43.349Z,100245.09
2023-03-01T11:25:16.020Z,100243.09
2023-03-01T11:27:46.553Z,100250.09
2023-03-01T11:30:24.355Z,100248.34
2023-03-01T11:33:06.264Z,100240.84
2023-03-01T11:35:36.661Z,100230.59
2023-03-01T11:38:22.232Z,100220.56
2023-03-01T11:40:58.266Z,100223.41
2023-03-01T11:43:36.802Z,100212.97
2023-03-01T11:46:42.069Z,100225.78
2023-03-01T11:49:37.683Z,100205.44
2023-03-01T11:52:23.347Z,100202.53
2023-03-01T11:55:20.506Z,100197.53
2023-03-01T11:58:26.006Z,100216.53
2023-03-01T12:01:17.217Z,100193.59
2023-03-01T12:04:15.360Z,100187.56
2023-03-01T12:06:57.771Z,100179.56
2023-03-01T12:09:42.881Z,100180.34
2023-03-01T12:12:32.129Z,100182.28
2023-03-01T12:15:42.965Z,100162.22
2023-03-01T12:18:41.385Z,100142.56
2023-03-01T12:21:23.449Z,100141.53
2023-03-01T12:24:36.177Z,100137.44
2023-03-01T12:27:25.123Z,100131.53
2023-03-01T12:30:06.384Z,100142.91
2023-03-01T12:32:53.346Z,100144.59
2023-03-01T12:36:04.860Z,100130.53
2023-03-01T12:38:42.730Z,100126.16
2023-03-01T12:41:42.833Z,100134.09
2023-03-01T12:44:31.373Z,100123.63
2023-03-01T12:47:20.608Z,100129.47
2023-03-01T12:49:56.209Z,100129.41
2023-03-01T12:52:36.825Z,100121.44
2023-03-01T12:55:26.939Z,100103.41
2023-03-01T12:58:13.332Z,100105.53
2023-03-01T13:01:01.425Z,100108.97
2023-03-01T13:04:00.668Z,100088.50
2023-03-01T13:06:43.269Z,100096.38
2023-03-01T13:09:28.350Z,100091.19
2023-03-01T13:11:55.167Z,100088.84
2023-03-01T13:14:49.949Z,100093.84
2023-03-01T13:17:44.691Z,100084.06
2023-03-01T13:20:20.870Z,100077.38
2023-03-01T13:23:00.665Z,100093.22
2023-03-01T13:25:34.682Z,100083.56
2023-03-01T13:28:46.803Z,100078.38
2023-03-01T13:32:00.947Z,100075.28
2023-03-01T13:34:52.737Z,100073.72
2023-03-01T13:37:52.862Z,100083.00
2023-03-01T13:41:01.283Z,100085.34
2023-03-01T13:43:35.408Z,100077.72
2023-03-01T13:46:12.514Z,100074.47
2023-03-01T13:48:40.854Z,100066.91
2023-03-01T13:51:12.698Z,100067.94
2023-03-01T13:53:45.113Z,100059.66
2023-03-01T13:56:17.125Z,100072.91
2023-03-01T13:58:54.677Z,100062.38
2023-03-01T14:01:25.906Z,100061.25
2023-03-01T14:03:53.746Z,100060.50
2023-03-01T14:06:28.120Z,100066.28
2023-03-01T14:09:09.422Z,100057.50
2023-03-01T14:12:03.084Z,100058.28
2023-03-01T14:14:42.884Z,100050.84
2023-03-01T14:17:41.407Z,100049.56
2023-03-01T14:20:19.136Z,100050.13
2023-03-01T14:22:50.783Z,100045.88
2023-03-01T14:25:28.851Z,100035.47
2023-03-01T14:28:02.895Z,100051.69
2023-03-01T14:30:37.275Z,100050.66
2023-03-01T14:33:18.642Z,100047.88
2023-03-01T14:35:56.078Z,100043.84
2023-03-01T14:38:31.558Z,100045.16
2023-03-01T14:41:04.539Z,100056.81
2023-03-01T14:43:34.651Z,100046.25
2023-03-01T14:46:01.870Z,100059.13
2023-03-01T14:48:32.021Z,100068.00
2023-03-01T14:50:59.079Z,100080.69
2023-03-01T14:53:34.141Z,100078.19
2023-03-01T14:56:05.603Z,100075.81
2023-03-01T14:58:34.047Z,100083.50
2023-03-01T15:01:05.624Z,100082.56
2023-03-01T15:03:37.179Z,100076.25
2023-03-01T15:06:07.895Z,100083.13
2023-03-01T15:08:41.950Z,100084.22
2023-03-01T15:11:21.671Z,100077.38
2023-03-01T15:13:48.506Z,100076.91
2023-03-01T15:16:19.259Z,100079.03
2023-03-01T15:18:49.463Z,100080.25
2023-03-01T15:21:22.448Z,100085.06
2023-03-01T15:23:55.122Z,100065.50
2023-03-01T15:26:26.566Z,100067.91
2023-03-01T15:28:58.658Z,100072.91
2023-03-01T15:31:29.151Z,100074.03
2023-03-01T15:34:11.795Z,100066.78
2023-03-01T15:36:44.901Z,100077.16
2023-03-01T15:39:41.597Z,100070.38
2023-03-01T15:42:11.630Z,100078.91
2023-03-01T15:44:43.703Z,100066.31
2023-03-01T15:47:29.716Z,100069.22
2023-03-01T15:49:58.980Z,100075.53
2023-03-01T15:52:30.482Z,100070.03
2023-03-01T15:55:04.745Z,100065.19
2023-03-01T15:57:31.612Z,100059.38
2023-03-01T15:59:58.430Z,100056.88
2023-03-01T16:02:26.001Z,100062.81
2023-03-01T16:04:52.835Z,100061.53
2023-03-01T16:07:19.698Z,100063.06
2023-03-01T16:09:46.467Z,100052.50
2023-03-01T16:12:17.370Z,100055.84
2023-03-01T16:14:44.415Z,100054.63
2023-03-01T16:17:11.359Z,100059.56
2023-03-01T16:19:38.554Z,100058.44
2023-03-01T16:22:05.701Z,100045.19
2023-03-01T16:24:33.086Z,100031.50
2023-03-01T16:26:59.998Z,100032.06
2023-03-01T16:29:28.201Z,100040.75
2023-03-01T16:31:55.757Z,100038.44
2023-03-01T16:34:22.869Z,100031.09
2023-03-01T16:36:50.139Z,100036.47
2023-03-01T16:39:17.163Z,100036.03
2023-03-01T16:41:44.230Z,100031.41
2023-03-01T16:44:11.100Z,100034.09
2023-03-01T16:46:39.260Z,100038.00
2023-03-01T16:49:06.011Z,100027.31
2023-03-01T16:51:33.166Z,100029.34
2023-03-01T16:54:00.174Z,100029.47
2023-03-01T16:56:27.066Z,100025.75
2023-03-01T16:58:54.454Z,100036.50
2023-03-01T17:01:21.921Z,100029.16
2023-03-01T17:03:50.968Z,100026.00
2023-03-01T17:06:21.534Z,100026.72
2023-03-01T17:08:48.643Z,100024.88
2023-03-01T17:11:19.161Z,100029.31
2023-03-01T17:13:46.830Z,100032.59
2023-03-01T17:16:16.593Z,100036.69
2023-03-01T17:18:44.415Z,100039.72
2023-03-01T17:21:13.788Z,100046.25
2023-03-01T17:23:44.942Z,100059.06
2023-03-01T17:26:14.074Z,100054.44
2023-03-01T17:28:41.901Z,100064.53
2023-03-01T17:31:08.674Z,100061.19
2023-03-01T17:33:36.582Z,100077.13
2023-03-01T17:36:03.877Z,100066.56
2023-03-01T17:38:32.021Z,100069.59
2023-03-01T17:41:00.570Z,100069.28
2023-03-01T17:43:27.723Z,100077.34
2023-03-01T17:45:55.562Z,100073.88
2023-03-01T17:48:22.965Z,100070.34
2023-03-01T17:50:50.442Z,100073.56
2023-03-01T17:53:17.780Z,100076.78
2023-03-01T17:55:45.998Z,100081.69
2023-03-01T17:58:15.147Z,100078.19
2023-03-01T18:00:42.048Z,100080.78
2023-03-01T18:03:08.882Z,100089.34
2023-03-01T18:05:37.177Z,100088.81
2023-03-01T18:08:05.322Z,100084.13
2023-03-01T18:10:33.911Z,100089.69
2023-03-01T18:13:02.160Z,100083.50
2023-03-01T18:15:29.099Z,100087.22
2023-03-01T18:17:55.853Z,100081.22
2023-03-01T18:20:23.818Z,100084.09
2023-03-01T18:22:50.615Z,100088.47
2023-03-01T18:25:17.401Z,100077.44
2023-03-01T18:27:44.341Z,100086.16
2023-03-01T18:30:14.837Z,100084.81
2023-03-01T18:32:41.615Z,100081.66
2023-03-01T18:35:08.807Z,100080.69
2023-03-01T18:37:35.882Z,100089.72
2023-03-01T18:40:02.708Z,100085.72
2023-03-01T18:42:29.527Z,100077.00
2023-03-01T18:44:56.245Z,100074.81
2023-03-01T18:47:24.377Z,100074.81
2023-03-01T18:49:51.246Z,100073.84
2023-03-01T18:52:18.140Z,100071.47
2023-03-01T18:54:44.904Z,100072.16
2023-03-01T18:57:11.903Z,100072.50
2023-03-01T18:59:38.820Z,100063.09
2023-03-01T19:02:06.945Z,100065.94
2023-03-01T19:04:36.137Z,100067.47
2023-03-01T19:07:03.136Z,100057.09
2023-03-01T19:09:30.905Z,100069.66
2023-03-01T19:11:57.715Z,100070.16
2023-03-01T19:14:24.679Z,100061.47
2023-03-01T19:16:51.594Z,100063.13
2023-03-01T19:19:18.374Z,100067.31
2023-03-01T19:21:59.531Z,100062.78
2023-03-01T19:24:32.918Z,100065.13
2023-03-01T19:26:59.863Z,100062.97
2023-03-01T19:29:26.758Z,100061.31
2023-03-01T19:31:53.656Z,100058.94
2023-03-01T19:34:20.778Z,100055.78
2023-03-01T19:36:48.999Z,100058.47
2023-03-01T19:39:15.767Z,100063.81
2023-03-01T19:41:43.680Z,100058.47
2023-03-01T19:44:11.863Z,100061.31
2023-03-01T19:46:39.044Z,100064.31
2023-03-01T19:49:06.581Z,100068.84
2023-03-01T19:51:34.450Z,100058.78
2023-03-01T19:54:03.948Z,100065.31
2023-03-01T19:56:31.185Z,100063.81
2023-03-01T19:58:58.170Z,100069.47
2023-03-01T20:01:25.648Z,100072.50
2023-03-01T20:03:52.872Z,100067.97
2023-03-01T20:06:20.273Z,100072.16
2023-03-01T20:08:48.710Z,100063.28
2023-03-01T20:11:19.294Z,100067.28
2023-03-01T20:13:46.537Z,100057.94
2023-03-01T20:16:17.275Z,100077.84
2023-03-01T20:18:44.453Z,100064.31
2023-03-01T20:21:21.755Z,100063.78
2023-03-01T20:23:50.406Z,100068.81
2023-03-01T20:26:20.169Z,100065.97
2023-03-01T20:28:51.290Z,100081.16
2023-03-01T20:31:21.527Z,100057.63
2023-03-01T20:33:48.965Z,100064.66
2023-03-01T20:36:17.043Z,100067.13
2023-03-01T20:38:43.834Z,100062.31
2023-03-01T20:41:13.461Z,100063.13
2023-03-01T20:43:42.579Z,100065.16
2023-03-01T20:46:13.020Z,100064.13
2023-03-01T20:48:41.860Z,100074.19
2023-03-01T20:51:11.477Z,100074.50
2023-03-01T20:53:48.629Z,100070.66
2023-03-01T20:56:40.678Z,100073.66
2023-03-01T20:59:12.668Z,100068.31
2023-03-01T21:01:39.620Z,100061.78
2023-03-01T21:04:06.968Z,100059.28
2023-03-01T21:06:34.363Z,100065.13
2023-03-01T21:09:01.688Z,100065.94
2023-03-01T21:11:28.475Z,100064.75
2023-03-01T21:13:57.005Z,100058.09
2023-03-01T21:16:25.348Z,100058.09
2023-03-01T21:18:52.176Z,100050.56
2023-03-01T21:21:22.579Z,100043.53
2023-03-01T21:23:49.530Z,100044.22
2023-03-01T21:26:19.582Z,100036.03
2023-03-01T21:28:47.876Z,100043.88
2023-03-01T21:31:18.903Z,100037.03
2023-03-01T21:33:50.573Z,100045.88
2023-03-01T21:36:19.013Z,100036.00
2023-03-01T21:38:48.707Z,100043.84
2023-03-01T21:41:19.256Z,100028.97
2023-03-01T21:43:49.789Z,100032.34
2023-03-01T21:46:19.498Z,100028.00
2023-03-01T21:48:49.434Z,100023.00
2023-03-01T21:51:19.834Z,100021.47
2023-03-01T21:53:47.150Z,100024.63
2023-03-01T21:56:17.098Z,100026.38
2023-03-01T21:58:44.158Z,100032.03
2023-03-01T22:01:13.888Z,100026.19
2023-03-01T22:03:41.623Z,100032.84
2023-03-01T22:06:09.833Z,100033.50
2023-03-01T22:08:36.593Z,100017.13
2023-03-01T22:11:04.038Z,100028.94
2023-03-01T22:13:30.862Z,100023.59
2023-03-01T22:16:00.136Z,100024.28
2023-03-01T22:18:26.986Z,100026.66
2023-03-01T22:20:53.937Z,100020.13
2023-03-01T22:23:22.095Z,100024.63
2023-03-01T22:25:48.911Z,100025.00
2023-03-01T22:28:15.693Z,100023.81
2023-03-01T22:34:29.938Z,100019.91
2023-03-01T22:36:56.876Z,100019.97
2023-03-01T22:39:25.036Z,100028.66
2023-03-01T22:41:54.443Z,100016.94
2023-03-01T22:44:23.602Z,100020.09
2023-03-01T22:46:51.025Z,100031.94
2023-03-01T22:49:19.049Z,100034.91
2023-03-01T22:51:46.764Z,100028.41
2023-03-01T22:54:14.214Z,100032.38
2023-03-01T22:56:43.035Z,100035.25
2023-03-01T22:59:13.534Z,100025.22
2023-03-01T23:01:45.170Z,100027.22
2023-03-01T23:04:13.146Z,100026.03
2023-03-01T23:06:39.897Z,100029.25
2023-03-01T23:09:06.717Z,100036.25
2023-03-01T23:11:33.562Z,100031.75
2023-03-01T23:14:01.731Z,100027.22
2023-03-01T23:16:28.614Z,100026.34
2023-03-01T23:18:56.904Z,100029.72
2023-03-01T23:21:23.731Z,100018.19
2023-03-01T23:23:50.938Z,100023.84
2023-03-01T23:26:19.296Z,100031.69
2023-03-01T23:28:46.170Z,100019.34
2023-03-01T23:31:15.842Z,100031.75
2023-03-01T23:33:44.695Z,100026.72
2023-03-01T23:36:18.307Z,100028.06
2023-03-01T23:38:46.019Z,100032.09
2023-03-01T23:41:15.917Z,100026.88
2023-03-01T23:43:45.118Z,100023.03
2023-03-01T23:46:13.597Z,100020.50
2023-03-01T23:48:40.867Z,100017.31
2023-03-01T23:51:09.308Z,100017.31
2023-03-01T23:53:39.385Z,100016.97
2023-03-01T23:56:08.446Z,100026.03
2023-03-01T23:58:35.274Z,100026.03
